Time;durP1;ratioP1;P1;durP2;ratioP2;P2;SDS_P1;SDS_P2;PMS_P1;PMS_P2;Temp;Humidity;BMP_temperature;BMP_pressure;BME280_temperature;BME280_humidity;BME280_pressure;Samples;Min_cycle;Max_cycle;Signal;HPM_P1;HPM_P2
2023/03/30 00:04:12;;;;;;;28.40;13.20;;;;;;;6.97;82.41;100292.56;214472;1285;139007;-87
2023/03/30 00:09:13;;;;;;;22.90;11.80;;;;;;;6.95;82.36;100288.08;214137;1285;139439;-88
2023/03/30 00:14:16;;;;;;;23.10;11.50;;;;;;;6.96;82.45;100285.90;215845;1288;99236;-86
2023/03/30 00:19:17;;;;;;;21.10;12.00;;;;;;;6.97;82.52;100285.59;215156;1286;138670;-88
2023/03/30 00:24:17;;;;;;;20.90;11.10;;;;;;;6.97;82.48;100281.15;215783;1289;139042;-87
2023/03/30 00:29:18;;;;;;;21.20;11.40;;;;;;;6.98;82.63;100271.87;215229;1285;139243;-87
2023/03/30 00:34:19;;;;;;;22.10;10.80;;;;;;;7.00;82.64;100263.41;215320;1285;139061;-89
2023/03/30 00:39:21;;;;;;;20.50;11.50;;;;;;;7.02;82.75;100269.48;215061;1285;139495;-89
2023/03/30 00:45:00;;;;;;;23.10;10.90;;;;;;;7.04;82.78;100265.20;215666;1285;97893;-88
2023/03/30 00:50:01;;;;;;;20.40;12.10;;;;;;;7.05;82.72;100260.95;215143;1285;139471;-88
2023/03/30 00:55:04;;;;;;;21.80;11.50;;;;;;;7.06;82.96;100250.16;215527;1285;138791;-88
2023/03/30 01:00:07;;;;;;;20.10;11.50;;;;;;;7.07;82.95;100251.20;215112;1285;139212;-88
2023/03/30 01:05:10;;;;;;;20.60;10.90;;;;;;;7.08;82.94;100249.02;215878;1285;139352;-88
2023/03/30 01:10:11;;;;;;;20.70;11.30;;;;;;;7.10;83.02;100243.67;215261;1285;139473;-89
2023/03/30 01:15:12;;;;;;;21.70;12.40;;;;;;;7.11;83.31;100236.30;215808;1285;139027;-87
2023/03/30 01:20:31;;;;;;;21.30;11.10;;;;;;;7.11;84.18;100231.90;215389;1285;139163;-88
2023/03/30 01:26:02;;;;;;;24.20;12.80;;;;;;;7.10;84.96;100230.92;215800;1288;139541;-88
2023/03/30 01:31:26;;;;;;;22.00;11.50;;;;;;;7.05;85.62;100220.98;215090;1285;139008;-87
2023/03/30 01:36:48;;;;;;;23.90;11.40;;;;;;;7.03;85.80;100223.69;215950;1285;140562;-87
2023/03/30 01:42:17;;;;;;;21.10;11.70;;;;;;;7.01;86.18;100214.96;215239;1285;139385;-87
2023/03/30 01:47:53;;;;;;;22.30;11.50;;;;;;;6.99;86.51;100209.81;215738;1288;139484;-88
2023/03/30 01:53:07;;;;;;;20.50;12.60;;;;;;;6.99;86.84;100202.15;215058;1286;139919;-88
2023/03/30 01:58:27;;;;;;;27.10;13.40;;;;;;;6.97;87.20;100196.10;215787;1285;139912;-88
2023/03/30 02:03:33;;;;;;;23.50;13.40;;;;;;;6.93;87.79;100187.20;215148;1285;139819;-87
2023/03/30 02:08:36;;;;;;;21.20;11.90;;;;;;;6.91;88.13;100176.11;215731;1285;98962;-90
2023/03/30 02:13:37;;;;;;;24.30;13.00;;;;;;;6.87;88.31;100183.31;215066;1285;138643;-88
2023/03/30 02:18:38;;;;;;;22.10;14.00;;;;;;;6.85;88.52;100184.59;215780;1285;138658;-88
2023/03/30 02:23:42;;;;;;;23.30;12.50;;;;;;;6.81;88.87;100177.25;214962;1285;139555;-89
2023/03/30 02:28:43;;;;;;;27.10;14.00;;;;;;;6.77;89.37;100171.92;215621;1285;138951;-87
2023/03/30 02:34:09;;;;;;;25.20;13.10;;;;;;;6.75;89.39;100164.11;215122;1288;138899;-88
2023/03/30 02:39:12;;;;;;;25.20;13.40;;;;;;;6.75;89.75;100159.73;215254;1289;139959;-87
2023/03/30 02:44:30;;;;;;;21.00;12.00;;;;;;;6.76;89.81;100157.90;215848;1285;97957;-87
2023/03/30 02:49:52;;;;;;;22.10;12.80;;;;;;;6.75;90.73;100151.80;215254;1285;138912;-88
2023/03/30 02:55:06;;;;;;;23.20;13.40;;;;;;;6.69;91.54;100143.69;215745;1285;138820;-87
2023/03/30 03:00:32;;;;;;;21.20;12.20;;;;;;;6.68;92.22;100133.10;215193;1289;139517;-89
2023/03/30 03:05:34;;;;;;;25.50;13.40;;;;;;;6.60;92.96;100126.85;215646;1285;138886;-87
2023/03/30 03:10:35;;;;;;;25.70;14.90;;;;;;;6.56;92.94;100126.44;215297;1285;139278;-88
2023/03/30 03:15:36;;;;;;;30.60;17.10;;;;;;;6.54;93.03;100127.96;215774;1289;139346;-88
2023/03/30 03:20:37;;;;;;;32.60;19.40;;;;;;;6.56;93.25;100124.26;215364;1285;138944;-88
2023/03/30 03:25:38;;;;;;;29.90;16.80;;;;;;;6.56;93.95;100118.92;215800;1285;139359;-89
2023/03/30 03:30:38;;;;;;;29.90;16.00;;;;;;;6.50;94.39;100106.61;215180;1286;138915;-88
2023/03/30 03:35:39;;;;;;;27.80;14.60;;;;;;;6.47;94.92;100100.47;215532;1285;138898;-88
2023/03/30 03:40:40;;;;;;;28.10;15.60;;;;;;;6.45;95.15;100093.23;214957;1285;139450;-89
2023/03/30 03:45:40;;;;;;;25.60;15.90;;;;;;;6.43;95.66;100091.69;215628;1285;139899;-88
2023/03/30 03:50:42;;;;;;;27.30;15.20;;;;;;;6.39;95.83;100087.63;214989;1285;138785;-89
2023/03/30 03:55:44;;;;;;;23.10;14.00;;;;;;;6.37;96.68;100080.80;215630;1285;138851;-88
2023/03/30 04:00:45;;;;;;;29.10;16.20;;;;;;;6.32;97.03;100079.83;214969;1289;139805;-88
2023/03/30 04:05:46;;;;;;;24.70;14.50;;;;;;;6.32;97.44;100076.62;215506;1285;140394;-88
2023/03/30 04:10:46;;;;;;;28.20;15.30;;;;;;;6.31;97.92;100067.64;214825;1285;286993;-88
2023/03/30 04:15:47;;;;;;;28.40;14.90;;;;;;;6.28;98.51;100061.15;215508;1286;139240;-88
2023/03/30 04:20:48;;;;;;;24.10;14.10;;;;;;;6.27;98.58;100061.28;215076;1285;139959;-87
2023/03/30 04:25:50;;;;;;;26.30;15.50;;;;;;;6.25;98.81;100057.50;215542;1285;138899;-88
2023/03/30 04:30:57;;;;;;;27.30;15.20;;;;;;;6.24;99.18;100051.46;214935;1285;139861;-88
2023/03/30 04:35:58;;;;;;;23.80;15.40;;;;;;;6.23;99.67;100048.31;215499;1288;138844;-89
2023/03/30 04:41:00;;;;;;;27.30;15.40;;;;;;;6.22;99.86;100043.14;214919;1285;139775;-88
2023/03/30 04:46:01;;;;;;;29.00;17.00;;;;;;;6.21;99.87;100040.00;215688;1285;139813;-89
2023/03/30 04:51:01;;;;;;;25.90;16.10;;;;;;;6.20;99.95;100031.93;215205;1287;139260;-88
2023/03/30 04:56:02;;;;;;;26.70;15.60;;;;;;;6.20;100.00;100025.75;215713;1285;139611;-88
2023/03/30 05:01:02;;;;;;;26.20;15.10;;;;;;;6.18;100.00;100017.53;215212;1285;139494;-87
2023/03/30 05:06:03;;;;;;;26.60;16.40;;;;;;;6.17;100.00;100012.80;215925;1285;139182;-89
2023/03/30 05:11:03;;;;;;;26.20;15.20;;;;;;;6.16;100.00;100006.72;215208;1285;140460;-88
2023/03/30 05:16:04;;;;;;;29.30;15.90;;;;;;;6.15;100.00;100008.02;215798;1285;229372;-88
2023/03/30 05:21:05;;;;;;;28.70;16.70;;;;;;;6.17;100.00;100006.34;215796;1285;139388;-88
2023/03/30 05:26:06;;;;;;;24.90;16.10;;;;;;;6.19;100.00;100003.73;216015;1286;138878;-88
2023/03/30 05:31:06;;;;;;;28.20;15.70;;;;;;;6.23;100.00;99999.84;215273;1286;139289;-86
2023/03/30 05:36:07;;;;;;;27.00;16.40;;;;;;;6.25;100.00;99992.00;215891;1285;138939;-86
2023/03/30 05:41:08;;;;;;;30.30;17.30;;;;;;;6.28;100.00;99987.15;215377;1285;139281;-86
2023/03/30 05:46:08;;;;;;;29.80;17.80;;;;;;;6.32;100.00;99984.65;216230;1285;138836;-86
2023/03/30 05:51:10;;;;;;;27.60;17.60;;;;;;;6.36;100.00;99987.07;215689;1285;139569;-86
2023/03/30 05:56:10;;;;;;;32.40;17.80;;;;;;;6.42;100.00;99989.00;216504;1285;139428;-86
2023/03/30 06:01:12;;;;;;;27.10;17.10;;;;;;;6.47;100.00;99982.92;216079;1286;139546;-85
2023/03/30 06:06:13;;;;;;;35.10;18.40;;;;;;;6.54;100.00;99988.29;216527;1285;139642;-89
2023/03/30 06:11:14;;;;;;;30.40;18.50;;;;;;;6.59;100.00;99993.02;215303;1285;139868;-85
2023/03/30 06:16:14;;;;;;;28.30;18.00;;;;;;;6.64;100.00;100001.23;215886;1285;139104;-85
2023/03/30 06:21:15;;;;;;;26.60;16.50;;;;;;;6.67;100.00;99997.06;215250;1285;140361;-85
2023/03/30 06:26:15;;;;;;;27.30;17.40;;;;;;;6.68;100.00;99982.02;215959;1285;97921;-85
2023/03/30 06:31:16;;;;;;;30.30;17.40;;;;;;;6.74;100.00;99971.73;215279;1285;139101;-85
2023/03/30 06:36:16;;;;;;;25.40;17.80;;;;;;;6.81;100.00;99961.79;215865;1285;138944;-85
2023/03/30 06:41:17;;;;;;;29.90;18.70;;;;;;;6.92;100.00;99945.89;215490;1286;139406;-85
2023/03/30 06:46:17;;;;;;;34.30;19.30;;;;;;;7.03;100.00;99942.58;215924;1285;138827;-85
2023/03/30 06:51:18;;;;;;;30.60;18.90;;;;;;;7.11;100.00;99936.13;215379;1285;141625;-84
2023/03/30 06:56:19;;;;;;;33.60;18.90;;;;;;;7.19;100.00;99936.91;215964;1285;98056;-84
2023/03/30 07:01:19;;;;;;;27.60;17.10;;;;;;;7.28;100.00;99938.70;215402;1285;140555;-84
2023/03/30 07:06:19;;;;;;;32.10;16.50;;;;;;;7.37;100.00;99939.31;215907;1285;139105;-83
2023/03/30 07:11:21;;;;;;;32.80;18.40;;;;;;;7.40;100.00;99945.77;215411;1285;139810;-84
2023/03/30 07:16:21;;;;;;;27.90;16.50;;;;;;;7.46;100.00;99950.95;215940;1285;139806;-83
2023/03/30 07:21:22;;;;;;;29.60;17.20;;;;;;;7.52;100.00;99942.75;215407;1286;138848;-84
2023/03/30 07:26:22;;;;;;;28.50;18.60;;;;;;;7.55;100.00;99933.88;215921;1285;98141;-83
2023/03/30 07:31:23;;;;;;;30.80;17.00;;;;;;;7.58;100.00;99932.44;215371;1285;138943;-83
2023/03/30 07:36:23;;;;;;;29.90;17.20;;;;;;;7.64;100.00;99925.56;215730;1285;139460;-83
2023/03/30 07:41:24;;;;;;;29.40;17.70;;;;;;;7.69;100.00;99917.42;215227;1285;139441;-82
2023/03/30 07:46:25;;;;;;;30.70;17.50;;;;;;;7.75;100.00;99904.20;216063;1285;138853;-83
2023/03/30 07:51:25;;;;;;;31.30;16.50;;;;;;;7.83;100.00;99892.81;215373;1288;139378;-82
2023/03/30 07:56:26;;;;;;;26.90;16.50;;;;;;;7.93;100.00;99885.50;216153;1285;97948;-83
2023/03/30 08:01:26;;;;;;;27.10;16.30;;;;;;;8.07;100.00;99878.79;216000;1285;139117;-84
2023/03/30 08:06:28;;;;;;;28.00;16.90;;;;;;;8.21;100.00;99872.72;216021;1290;140016;-83
2023/03/30 08:11:28;;;;;;;28.10;17.60;;;;;;;8.34;100.00;99864.17;215079;1285;139064;-83
2023/03/30 08:16:30;;;;;;;27.40;16.60;;;;;;;8.50;100.00;99852.60;215547;1285;139043;-84
2023/03/30 08:21:30;;;;;;;27.30;16.50;;;;;;;8.64;100.00;99840.13;214237;1285;140058;-82
2023/03/30 08:26:31;;;;;;;25.30;14.50;;;;;;;8.77;100.00;99833.09;214781;1286;97970;-84
2023/03/30 08:31:31;;;;;;;29.80;16.10;;;;;;;8.91;100.00;99827.17;214303;1285;139972;-84
2023/03/30 08:36:32;;;;;;;24.60;15.60;;;;;;;9.03;100.00;99829.55;214958;1285;138891;-83
2023/03/30 08:42:00;;;;;;;23.10;15.30;;;;;;;9.16;100.00;99823.05;214392;1285;139811;-82
2023/03/30 08:47:03;;;;;;;24.90;14.80;;;;;;;9.34;100.00;99815.23;214833;1285;139762;-84
2023/03/30 08:52:04;;;;;;;21.10;13.70;;;;;;;9.47;100.00;99814.23;214243;1286;140306;-83
2023/03/30 08:57:30;;;;;;;22.10;13.30;;;;;;;9.61;100.00;99806.70;214869;1286;99009;-84
2023/03/30 09:02:41;;;;;;;25.70;16.10;;;;;;;9.85;100.00;99794.86;214439;1288;139360;-84
2023/03/30 09:07:54;;;;;;;24.90;16.90;;;;;;;10.05;100.00;99785.84;214704;1288;138738;-83
2023/03/30 09:12:58;;;;;;;26.70;17.20;;;;;;;10.33;100.00;99780.17;214075;1288;139130;-83
2023/03/30 09:18:33;;;;;;;30.70;16.50;;;;;;;10.55;100.00;99769.98;214605;1285;139675;-82
2023/03/30 09:23:34;;;;;;;22.80;13.70;;;;;;;10.81;100.00;99756.45;214938;1285;139417;-82
2023/03/30 09:28:58;;;;;;;26.80;15.50;;;;;;;10.95;100.00;99743.79;215065;1285;139816;-82
2023/03/30 09:34:26;;;;;;;29.90;17.10;;;;;;;11.09;100.00;99738.08;214923;1285;139288;-82
2023/03/30 09:39:28;;;;;;;25.70;13.30;;;;;;;11.32;100.00;99737.56;214422;1290;139888;-81
2023/03/30 09:44:36;;;;;;;21.20;12.60;;;;;;;11.70;100.00;99730.03;215010;1289;98057;-83
2023/03/30 09:49:39;;;;;;;32.00;16.60;;;;;;;11.94;100.00;99719.76;214460;1289;139501;-81
2023/03/30 09:54:40;;;;;;;24.40;13.70;;;;;;;12.39;100.00;99714.16;215039;1285;139652;-81
2023/03/30 09:59:44;;;;;;;21.70;12.40;;;;;;;13.01;99.57;99710.63;214574;1286;139654;-85
2023/03/30 10:04:59;;;;;;;22.80;13.50;;;;;;;13.40;97.30;99706.65;215018;1286;139807;-83
2023/03/30 10:10:30;;;;;;;21.30;12.70;;;;;;;13.62;95.28;99697.45;214534;1285;140397;-85
2023/03/30 10:15:30;;;;;;;45.70;27.20;;;;;;;13.62;92.72;99689.94;215024;1285;139689;-82
2023/03/30 10:20:35;;;;;;;27.00;14.70;;;;;;;13.59;92.75;99682.09;214713;1285;140798;-84
2023/03/30 10:25:37;;;;;;;18.60;11.60;;;;;;;13.64;92.36;99682.74;214791;1290;138803;-84
2023/03/30 10:30:38;;;;;;;16.70;9.70;;;;;;;13.74;91.96;99679.83;214715;1288;140128;-87
2023/03/30 10:35:38;;;;;;;20.00;10.00;;;;;;;13.68;89.72;99686.16;214719;1285;138803;-87
2023/03/30 10:40:41;;;;;;;18.00;9.90;;;;;;;13.54;89.69;99689.66;214320;1285;140314;-83
2023/03/30 10:45:48;;;;;;;17.40;10.00;;;;;;;13.42;89.44;99688.08;214674;1286;139037;-84
2023/03/30 10:50:59;;;;;;;21.30;12.00;;;;;;;13.35;89.78;99684.42;214131;1289;139243;-84
2023/03/30 10:56:25;;;;;;;21.30;11.30;;;;;;;13.36;89.92;99675.83;214576;1288;139054;-83
2023/03/30 11:01:25;;;;;;;16.80;9.30;;;;;;;13.39;89.47;99672.79;214082;1285;140282;-83
2023/03/30 11:06:33;;;;;;;24.10;12.00;;;;;;;13.35;89.33;99656.52;214617;1285;139047;-83
2023/03/30 11:11:39;;;;;;;30.40;15.50;;;;;;;13.37;88.34;99643.13;214066;1288;139181;-83
2023/03/30 11:16:56;;;;;;;17.30;10.10;;;;;;;13.40;88.77;99632.59;214694;1288;139124;-84
2023/03/30 11:22:23;;;;;;;;;;;;;;;13.44;88.05;99634.19;214090;1289;139172;-86
2023/03/30 11:27:38;;;;;;;25.30;12.50;;;;;;;13.45;87.49;99629.02;214685;1285;127755;-84
2023/03/30 11:33:01;;;;;;;17.90;10.60;;;;;;;13.50;88.06;99627.86;214137;1289;139317;-84
2023/03/30 11:38:19;;;;;;;25.80;13.70;;;;;;;13.51;87.36;99628.08;214589;1285;138924;-84
2023/03/30 11:43:22;;;;;;;46.70;21.90;;;;;;;13.52;87.30;99623.02;214075;1288;139409;-85
2023/03/30 11:49:04;;;;;;;19.80;11.00;;;;;;;13.56;87.43;99614.52;214720;1285;139730;-85
2023/03/30 11:54:33;;;;;;;18.40;11.00;;;;;;;13.55;86.60;99617.14;214327;1288;140006;-87
2023/03/30 11:59:48;;;;;;;17.40;10.10;;;;;;;13.50;86.58;99616.49;214331;1288;140279;-85
2023/03/30 12:05:05;;;;;;;19.00;11.10;;;;;;;13.48;87.17;99618.33;214764;1290;139619;-85
2023/03/30 12:10:19;;;;;;;18.50;11.60;;;;;;;13.42;87.28;99615.65;214276;1285;140281;-85
2023/03/30 12:15:31;;;;;;;20.00;11.50;;;;;;;13.39;87.42;99611.98;214651;1289;139304;-87
2023/03/30 12:21:03;;;;;;;26.10;12.50;;;;;;;13.35;87.85;99592.93;214441;1289;139231;-85
2023/03/30 12:26:17;;;;;;;24.70;13.50;;;;;;;13.35;88.04;99590.16;214602;1285;139362;-86
2023/03/30 12:31:19;;;;;;;22.30;12.70;;;;;;;13.37;88.01;99591.64;214141;1286;139198;-84
2023/03/30 12:36:41;;;;;;;21.10;12.70;;;;;;;13.40;88.13;99589.16;214698;1284;139715;-84
2023/03/30 12:41:48;;;;;;;22.90;12.40;;;;;;;13.48;88.43;99586.03;214031;1286;140337;-83
2023/03/30 12:47:01;;;;;;;22.70;12.20;;;;;;;13.58;88.17;99575.30;214408;1288;140329;-85
2023/03/30 12:52:12;;;;;;;19.00;11.50;;;;;;;13.70;88.07;99565.02;214408;1286;139287;-84
2023/03/30 12:57:41;;;;;;;20.90;12.20;;;;;;;13.82;88.06;99553.52;214897;1291;99384;-84
2023/03/30 13:02:55;;;;;;;20.70;12.00;;;;;;;14.01;87.76;99545.39;214660;1288;139314;-83
2023/03/30 13:08:01;;;;;;;20.60;11.50;;;;;;;14.20;87.14;99537.95;214691;1288;139697;-84
2023/03/30 13:13:03;;;;;;;18.50;11.10;;;;;;;14.37;86.56;99526.83;214197;1286;139347;-85
2023/03/30 13:18:25;;;;;;;17.50;10.50;;;;;;;14.54;86.04;99531.39;214862;1286;139596;-84
2023/03/30 13:23:31;;;;;;;17.20;10.00;;;;;;;14.70;85.40;99533.39;214481;1288;140966;-88
2023/03/30 13:28:56;;;;;;;23.30;11.70;;;;;;;14.78;84.62;99536.46;214869;1288;139864;-85
2023/03/30 13:34:13;;;;;;;22.60;9.20;;;;;;;14.79;84.11;99520.61;214672;1286;139590;-85
2023/03/30 13:39:27;;;;;;;18.10;10.20;;;;;;;14.77;84.50;99506.73;214472;1285;138805;-85
2023/03/30 13:44:48;;;;;;;19.50;10.20;;;;;;;14.77;84.78;99502.13;214926;1289;106402;-86
2023/03/30 13:49:57;;;;;;;17.90;10.30;;;;;;;14.76;85.14;99490.06;214133;1285;139248;-85
2023/03/30 13:55:00;;;;;;;21.60;11.90;;;;;;;14.75;85.56;99490.93;214734;1292;139168;-85
2023/03/30 14:00:31;;;;;;;20.20;11.40;;;;;;;14.73;85.80;99483.23;214278;1291;139807;-84
2023/03/30 14:05:33;;;;;;;23.40;13.00;;;;;;;14.71;86.24;99472.37;214700;1288;139037;-85
2023/03/30 14:10:34;;;;;;;27.20;15.30;;;;;;;14.68;86.70;99459.04;214292;1285;140821;-85
2023/03/30 14:15:37;;;;;;;23.30;13.00;;;;;;;14.66;86.91;99449.82;214752;1286;139296;-86
2023/03/30 14:20:50;;;;;;;26.70;11.60;;;;;;;14.61;87.61;99449.16;214203;1285;139822;-85
2023/03/30 14:25:58;;;;;;;23.60;12.20;;;;;;;14.58;88.44;99446.52;214991;1286;140323;-84
2023/03/30 14:31:10;;;;;;;20.80;12.00;;;;;;;14.56;88.96;99437.62;214139;1285;140408;-84
2023/03/30 14:36:15;;;;;;;22.40;12.10;;;;;;;14.58;89.40;99422.55;214814;1289;139561;-85
2023/03/30 14:41:22;;;;;;;20.70;10.70;;;;;;;14.61;89.75;99399.61;214466;1289;139369;-84
2023/03/30 14:46:26;;;;;;;30.40;11.30;;;;;;;14.68;89.98;99379.05;215229;1288;139269;-85
2023/03/30 14:51:40;;;;;;;22.00;10.00;;;;;;;14.79;89.93;99377.86;214417;1288;140439;-84
2023/03/30 14:56:43;;;;;;;20.20;11.40;;;;;;;14.87;89.78;99368.00;214923;1291;105196;-84
2023/03/30 15:01:44;;;;;;;24.40;12.30;;;;;;;14.96;89.57;99373.51;214428;1289;139508;-84
2023/03/30 15:06:46;;;;;;;24.20;13.60;;;;;;;15.00;89.60;99374.04;214862;1286;139077;-84
2023/03/30 15:11:51;;;;;;;20.50;12.10;;;;;;;15.05;89.37;99380.42;214323;1285;139700;-84
2023/03/30 15:16:55;;;;;;;23.50;12.10;;;;;;;15.02;88.83;99380.33;215686;1289;139015;-85
2023/03/30 15:22:04;;;;;;;20.50;11.30;;;;;;;14.97;88.37;99379.98;214330;1288;139540;-87
2023/03/30 15:27:10;;;;;;;24.40;11.80;;;;;;;14.89;87.97;99384.19;215012;1290;111547;-82
2023/03/30 15:32:15;;;;;;;21.30;11.20;;;;;;;14.82;87.94;99385.95;214454;1286;139920;-84
2023/03/30 15:37:21;;;;;;;19.00;10.60;;;;;;;14.74;87.75;99390.39;215236;1286;138834;-86
2023/03/30 15:42:31;;;;;;;25.20;12.40;;;;;;;14.65;87.92;99386.46;214410;1285;140245;-86
2023/03/30 15:47:33;;;;;;;20.70;10.70;;;;;;;14.60;88.10;99383.18;214863;1289;139756;-84
2023/03/30 15:52:36;;;;;;;16.20;9.40;;;;;;;14.52;87.97;99382.96;214419;1286;139913;-85
2023/03/30 15:57:42;;;;;;;19.90;9.20;;;;;;;14.43;88.10;99385.29;215187;1289;139378;-85
2023/03/30 16:02:48;;;;;;;20.70;9.30;;;;;;;14.35;87.86;99370.77;215089;1286;139130;-85
2023/03/30 16:07:49;;;;;;;19.10;10.90;;;;;;;14.26;88.04;99377.60;218907;1288;138845;-83
2023/03/30 16:12:51;;;;;;;19.10;10.50;;;;;;;14.18;88.38;99374.48;218332;1285;266925;-86
2023/03/30 16:17:52;;;;;;;22.50;10.40;;;;;;;14.11;88.79;99364.44;216816;1286;139134;-83
2023/03/30 16:22:52;;;;;;;24.80;10.40;;;;;;;14.02;89.12;99366.56;214168;1289;139702;-84
2023/03/30 16:27:53;;;;;;;20.80;11.30;;;;;;;13.95;89.31;99362.05;214684;1285;139160;-85
2023/03/30 16:32:54;;;;;;;16.30;9.90;;;;;;;13.88;89.68;99358.88;214380;1286;139127;-87
2023/03/30 16:37:54;;;;;;;22.10;12.20;;;;;;;13.82;90.03;99341.98;214585;1288;139403;-85
2023/03/30 16:42:54;;;;;;;21.80;11.80;;;;;;;13.77;90.36;99332.61;214109;1299;139080;-85
2023/03/30 16:47:55;;;;;;;20.30;11.40;;;;;;;13.72;90.58;99338.33;214580;1289;139467;-84
2023/03/30 16:52:55;;;;;;;22.20;10.50;;;;;;;13.69;90.88;99341.94;214033;1286;139956;-85
2023/03/30 16:57:56;;;;;;;20.70;10.30;;;;;;;13.66;90.99;99345.06;214493;1285;139475;-84
2023/03/30 17:02:56;;;;;;;23.90;12.40;;;;;;;13.63;91.01;99344.80;214272;1289;139335;-84
2023/03/30 17:08:03;;;;;;;24.60;11.80;;;;;;;13.58;91.37;99360.64;214608;1290;139159;-84
2023/03/30 17:13:04;;;;;;;21.50;12.90;;;;;;;13.53;91.48;99352.27;214374;1289;138995;-84
2023/03/30 17:18:11;;;;;;;30.80;14.90;;;;;;;13.48;91.62;99342.23;214803;1286;139754;-85
2023/03/30 17:23:11;;;;;;;30.30;15.50;;;;;;;13.42;91.82;99345.04;214555;1286;140040;-84
2023/03/30 17:28:32;;;;;;;30.30;14.20;;;;;;;13.34;92.03;99348.88;214420;1289;139331;-87
2023/03/30 17:33:35;;;;;;;21.60;12.80;;;;;;;13.23;92.47;99346.86;214244;1289;139576;-86
2023/03/30 17:38:36;;;;;;;27.50;13.70;;;;;;;13.11;92.81;99375.79;214934;1287;97969;-85
2023/03/30 17:43:38;;;;;;;23.10;12.00;;;;;;;13.01;93.30;99426.68;214203;1286;139320;-84
2023/03/30 17:48:39;;;;;;;14.50;6.80;;;;;;;12.90;93.51;99458.86;215258;1288;139471;-90
2023/03/30 17:53:40;;;;;;;4.50;2.00;;;;;;;12.76;92.12;99492.91;214222;1286;138953;-85
2023/03/30 17:58:40;;;;;;;8.00;2.10;;;;;;;12.56;92.78;99485.02;214915;1285;138705;-85
2023/03/30 18:03:41;;;;;;;7.80;2.20;;;;;;;12.37;94.58;99480.59;214420;1288;140081;-85
2023/03/30 18:08:42;;;;;;;5.40;2.20;;;;;;;12.16;95.93;99485.46;215147;1288;98002;-86
2023/03/30 18:13:43;;;;;;;7.30;2.80;;;;;;;11.98;97.20;99489.13;214303;1287;139000;-87
2023/03/30 18:18:44;;;;;;;5.50;2.10;;;;;;;11.80;98.54;99482.52;214873;1285;139451;-86
2023/03/30 18:23:44;;;;;;;8.20;2.20;;;;;;;11.66;99.29;99486.34;214793;1285;139031;-86
2023/03/30 18:28:45;;;;;;;6.30;2.80;;;;;;;11.56;99.86;99468.21;214425;1286;139622;-84
2023/03/30 18:33:45;;;;;;;8.90;4.10;;;;;;;11.45;99.96;99456.35;214966;1285;138871;-84
2023/03/30 18:38:49;;;;;;;10.60;5.60;;;;;;;11.35;100.00;99443.20;214453;1285;139241;-84
2023/03/30 18:43:49;;;;;;;8.20;3.40;;;;;;;11.33;100.00;99448.40;214773;1286;139550;-84
2023/03/30 18:48:50;;;;;;;5.70;2.60;;;;;;;11.29;100.00;99441.75;214496;1285;139171;-85
2023/03/30 18:53:50;;;;;;;6.20;2.80;;;;;;;11.24;100.00;99424.23;214867;1285;138893;-84
2023/03/30 18:58:50;;;;;;;6.80;2.80;;;;;;;11.16;100.00;99436.48;214283;1290;139727;-84
2023/03/30 19:03:51;;;;;;;9.50;4.50;;;;;;;11.11;100.00;99468.39;214654;1285;139411;-84
2023/03/30 19:08:51;;;;;;;13.70;4.40;;;;;;;11.04;100.00;99470.87;214316;1288;139445;-85
2023/03/30 19:13:52;;;;;;;13.30;4.80;;;;;;;10.97;100.00;99493.33;214658;1288;139133;-84
2023/03/30 19:18:52;;;;;;;10.00;3.80;;;;;;;10.88;100.00;99497.69;214174;1285;140989;-84
2023/03/30 19:23:55;;;;;;;9.50;3.60;;;;;;;10.80;100.00;99512.20;214587;1285;139417;-85
2023/03/30 19:28:55;;;;;;;12.40;5.90;;;;;;;10.73;100.00;99504.14;214014;1285;140592;-83
2023/03/30 19:33:56;;;;;;;11.10;6.30;;;;;;;10.68;100.00;99514.23;214598;1285;139306;-86
2023/03/30 19:39:07;;;;;;;17.10;9.20;;;;;;;10.61;100.00;99512.45;214156;1285;139843;-84
2023/03/30 19:44:08;;;;;;;15.40;8.90;;;;;;;10.56;100.00;99503.19;215128;1289;139029;-85
2023/03/30 19:49:08;;;;;;;15.60;9.00;;;;;;;10.53;100.00;99499.58;214602;1285;139481;-85
2023/03/30 19:54:09;;;;;;;12.80;8.50;;;;;;;10.51;100.00;99493.85;214767;1290;139024;-86
2023/03/30 19:59:10;;;;;;;18.10;9.40;;;;;;;10.48;100.00;99501.80;214234;1290;139806;-84
2023/03/30 20:04:10;;;;;;;15.70;7.70;;;;;;;10.46;100.00;99505.20;214754;1286;139282;-84
2023/03/30 20:09:11;;;;;;;14.00;7.50;;;;;;;10.44;100.00;99500.96;214484;1285;139521;-84
2023/03/30 20:14:11;;;;;;;12.40;6.40;;;;;;;10.41;100.00;99496.79;214864;1288;140005;-83
2023/03/30 20:19:13;;;;;;;12.60;6.40;;;;;;;10.39;100.00;99494.61;214284;1287;139424;-84
2023/03/30 20:24:14;;;;;;;13.30;5.70;;;;;;;10.35;100.00;99502.71;214732;1285;139113;-85
2023/03/30 20:29:14;;;;;;;12.30;5.00;;;;;;;10.31;100.00;99502.17;214205;1285;139423;-84
2023/03/30 20:34:15;;;;;;;13.60;5.50;;;;;;;10.28;100.00;99503.67;214754;1284;139048;-85
2023/03/30 20:39:16;;;;;;;13.40;6.10;;;;;;;10.25;100.00;99502.80;214372;1288;139531;-87
2023/03/30 20:44:16;;;;;;;12.60;6.60;;;;;;;10.22;100.00;99496.14;214608;1285;139862;-87
2023/03/30 20:49:18;;;;;;;11.90;6.10;;;;;;;10.19;100.00;99491.74;214521;1288;139523;-88
2023/03/30 20:54:19;;;;;;;16.00;6.00;;;;;;;10.16;100.00;99490.35;214646;1285;139097;-89
2023/03/30 20:59:20;;;;;;;14.80;6.00;;;;;;;10.13;100.00;99503.32;214098;1289;139876;-87
2023/03/30 21:04:20;;;;;;;19.50;6.90;;;;;;;10.10;100.00;99497.11;214778;1286;139038;-86
2023/03/30 21:09:21;;;;;;;12.40;5.70;;;;;;;10.07;100.00;99492.55;214327;1285;140327;-86
2023/03/30 21:14:22;;;;;;;13.90;5.70;;;;;;;10.03;100.00;99498.77;214651;1285;138820;-86
2023/03/30 21:19:23;;;;;;;11.70;5.70;;;;;;;9.98;100.00;99504.17;214067;1286;139384;-86
2023/03/30 21:24:23;;;;;;;13.00;5.80;;;;;;;9.94;100.00;99495.38;215194;1288;139353;-86
2023/03/30 21:29:24;;;;;;;12.50;6.80;;;;;;;9.89;100.00;99489.81;214685;1286;139395;-87
2023/03/30 21:34:24;;;;;;;12.40;5.60;;;;;;;9.82;100.00;99495.55;215029;1285;138819;-88
2023/03/30 21:39:25;;;;;;;13.60;7.20;;;;;;;9.76;100.00;99495.24;214208;1285;139388;-85
2023/03/30 21:44:25;;;;;;;17.50;7.70;;;;;;;9.72;100.00;99500.90;215675;1290;98044;-87
2023/03/30 21:49:26;;;;;;;14.70;6.40;;;;;;;9.67;100.00;99501.92;214995;1285;138992;-86
2023/03/30 21:54:26;;;;;;;12.00;6.70;;;;;;;9.62;100.00;99506.23;215475;1285;139404;-87
2023/03/30 21:59:27;;;;;;;17.90;7.20;;;;;;;9.57;100.00;99510.55;214127;1286;139019;-86
2023/03/30 22:04:27;;;;;;;12.90;6.70;;;;;;;9.51;100.00;99507.27;214598;1285;139010;-86
2023/03/30 22:09:28;;;;;;;12.30;5.90;;;;;;;9.45;100.00;99504.58;213953;1288;139349;-85
2023/03/30 22:14:28;;;;;;;14.50;6.40;;;;;;;9.39;100.00;99511.80;214556;1285;99316;-86
2023/03/30 22:19:30;;;;;;;14.60;6.30;;;;;;;9.33;100.00;99510.85;214082;1289;138992;-87
2023/03/30 22:24:31;;;;;;;14.40;7.20;;;;;;;9.27;100.00;99514.45;214662;1285;138705;-85
2023/03/30 22:29:31;;;;;;;13.30;6.00;;;;;;;9.21;100.00;99514.91;214274;1288;139593;-86
2023/03/30 22:34:32;;;;;;;12.50;6.60;;;;;;;9.16;100.00;99515.45;215265;1285;138660;-86
2023/03/30 22:39:32;;;;;;;13.10;6.50;;;;;;;9.11;100.00;99513.02;214814;1286;139022;-86
2023/03/30 22:44:33;;;;;;;11.80;5.60;;;;;;;9.08;100.00;99514.96;215344;1291;98016;-85
2023/03/30 22:49:33;;;;;;;13.50;5.90;;;;;;;9.04;100.00;99516.75;214520;1285;139281;-85
2023/03/30 22:54:34;;;;;;;14.90;6.40;;;;;;;9.04;100.00;99521.21;215200;1285;141857;-87
2023/03/30 22:59:34;;;;;;;13.50;6.00;;;;;;;9.04;100.00;99526.64;214700;1285;138897;-89